sensor_id;sensor_type;location;lat;lon;timestamp;P1;durP1;ratioP1;P2;durP2;ratioP2
84495;SDS011;74855;51.206;17.408;2024-02-14T00:03:16;35.47;;;19.27;;
84495;SDS011;74855;51.206;17.408;2024-02-14T00:08:12;42.50;;;19.95;;
84495;SDS011;74855;51.206;17.408;2024-02-14T00:13:08;53.33;;;21.60;;
84495;SDS011;74855;51.206;17.408;2024-02-14T00:18:06;42.28;;;19.13;;
84495;SDS011;74855;51.206;17.408;2024-02-14T00:23:02;47.30;;;21.27;;
84495;SDS011;74855;51.206;17.408;2024-02-14T00:27:58;44.15;;;17.70;;
84495;SDS011;74855;51.206;17.408;2024-02-14T00:32:53;39.85;;;20.55;;
84495;SDS011;74855;51.206;17.408;2024-02-14T00:37:51;36.92;;;19.70;;
84495;SDS011;74855;51.206;17.408;2024-02-14T00:42:46;43.47;;;20.38;;
84495;SDS011;74855;51.206;17.408;2024-02-14T00:47:42;41.95;;;20.48;;
84495;SDS011;74855;51.206;17.408;2024-02-14T00:52:38;37.33;;;18.27;;
84495;SDS011;74855;51.206;17.408;2024-02-14T00:57:35;43.40;;;20.65;;
84495;SDS011;74855;51.206;17.408;2024-02-14T01:02:31;38.83;;;19.38;;
84495;SDS011;74855;51.206;17.408;2024-02-14T01:07:26;39.53;;;19.08;;
84495;SDS011;74855;51.206;17.408;2024-02-14T01:12:22;43.35;;;20.85;;
84495;SDS011;74855;51.206;17.408;2024-02-14T01:17:19;39.50;;;20.55;;
84495;SDS011;74855;51.206;17.408;2024-02-14T01:22:15;38.95;;;18.27;;
84495;SDS011;74855;51.206;17.408;2024-02-14T01:27:11;38.90;;;19.30;;
84495;SDS011;74855;51.206;17.408;2024-02-14T01:32:07;40.35;;;19.20;;
84495;SDS011;74855;51.206;17.408;2024-02-14T01:37:05;34.53;;;18.08;;
84495;SDS011;74855;51.206;17.408;2024-02-14T01:42:01;40.28;;;19.63;;
84495;SDS011;74855;51.206;17.408;2024-02-14T01:46:56;41.15;;;20.67;;
84495;SDS011;74855;51.206;17.408;2024-02-14T01:51:52;34.60;;;19.55;;
84495;SDS011;74855;51.206;17.408;2024-02-14T01:56:51;36.58;;;20.23;;
84495;SDS011;74855;51.206;17.408;2024-02-14T02:01:49;40.90;;;18.75;;
84495;SDS011;74855;51.206;17.408;2024-02-14T02:06:45;40.92;;;21.48;;
84495;SDS011;74855;51.206;17.408;2024-02-14T02:11:45;36.08;;;20.02;;
84495;SDS011;74855;51.206;17.408;2024-02-14T02:16:43;34.03;;;18.60;;
84495;SDS011;74855;51.206;17.408;2024-02-14T02:21:39;35.38;;;17.80;;
84495;SDS011;74855;51.206;17.408;2024-02-14T02:26:36;35.58;;;18.77;;
84495;SDS011;74855;51.206;17.408;2024-02-14T02:31:31;40.83;;;19.02;;
84495;SDS011;74855;51.206;17.408;2024-02-14T02:36:27;31.70;;;15.95;;
84495;SDS011;74855;51.206;17.408;2024-02-14T02:41:23;40.30;;;21.20;;
84495;SDS011;74855;51.206;17.408;2024-02-14T02:46:20;34.50;;;17.58;;
84495;SDS011;74855;51.206;17.408;2024-02-14T02:51:16;32.35;;;18.15;;
84495;SDS011;74855;51.206;17.408;2024-02-14T02:56:12;34.35;;;17.45;;
84495;SDS011;74855;51.206;17.408;2024-02-14T03:01:07;37.55;;;17.23;;
84495;SDS011;74855;51.206;17.408;2024-02-14T03:06:05;22.55;;;12.50;;
84495;SDS011;74855;51.206;17.408;2024-02-14T03:11:03;34.10;;;14.75;;
84495;SDS011;74855;51.206;17.408;2024-02-14T03:15:59;31.23;;;16.05;;
84495;SDS011;74855;51.206;17.408;2024-02-14T03:20:55;28.10;;;16.35;;
84495;SDS011;74855;51.206;17.408;2024-02-14T03:25:58;30.10;;;15.50;;
84495;SDS011;74855;51.206;17.408;2024-02-14T03:30:53;28.30;;;16.60;;
84495;SDS011;74855;51.206;17.408;2024-02-14T03:35:49;34.20;;;16.27;;
84495;SDS011;74855;51.206;17.408;2024-02-14T03:40:45;29.98;;;15.90;;
84495;SDS011;74855;51.206;17.408;2024-02-14T03:45:42;29.58;;;15.13;;
84495;SDS011;74855;51.206;17.408;2024-02-14T03:50:38;32.63;;;14.68;;
84495;SDS011;74855;51.206;17.408;2024-02-14T03:55:34;28.95;;;14.00;;
84495;SDS011;74855;51.206;17.408;2024-02-14T04:00:30;34.15;;;16.20;;
84495;SDS011;74855;51.206;17.408;2024-02-14T04:05:27;30.40;;;16.38;;
84495;SDS011;74855;51.206;17.408;2024-02-14T04:10:22;30.35;;;15.45;;
84495;SDS011;74855;51.206;17.408;2024-02-14T04:15:18;27.42;;;14.32;;
84495;SDS011;74855;51.206;17.408;2024-02-14T04:20:13;28.42;;;13.60;;
84495;SDS011;74855;51.206;17.408;2024-02-14T04:25:11;27.25;;;15.07;;
84495;SDS011;74855;51.206;17.408;2024-02-14T04:30:06;30.15;;;15.00;;
84495;SDS011;74855;51.206;17.408;2024-02-14T04:35:03;28.58;;;15.82;;
84495;SDS011;74855;51.206;17.408;2024-02-14T04:40:01;25.83;;;12.93;;
84495;SDS011;74855;51.206;17.408;2024-02-14T04:44:58;27.42;;;14.20;;
84495;SDS011;74855;51.206;17.408;2024-02-14T04:49:53;28.35;;;14.23;;
84495;SDS011;74855;51.206;17.408;2024-02-14T04:54:49;26.05;;;13.00;;
84495;SDS011;74855;51.206;17.408;2024-02-14T04:59:45;28.60;;;15.30;;
84495;SDS011;74855;51.206;17.408;2024-02-14T05:04:42;26.85;;;13.85;;
84495;SDS011;74855;51.206;17.408;2024-02-14T05:09:37;31.58;;;14.40;;
84495;SDS011;74855;51.206;17.408;2024-02-14T05:14:37;26.05;;;12.82;;
84495;SDS011;74855;51.206;17.408;2024-02-14T05:19:33;26.40;;;13.32;;
84495;SDS011;74855;51.206;17.408;2024-02-14T05:24:30;27.75;;;13.23;;
84495;SDS011;74855;51.206;17.408;2024-02-14T05:29:25;26.25;;;14.48;;
84495;SDS011;74855;51.206;17.408;2024-02-14T05:34:21;27.65;;;14.00;;
84495;SDS011;74855;51.206;17.408;2024-02-14T05:39:17;28.40;;;15.65;;
84495;SDS011;74855;51.206;17.408;2024-02-14T05:44:14;31.17;;;13.90;;
84495;SDS011;74855;51.206;17.408;2024-02-14T05:49:10;28.40;;;14.57;;
84495;SDS011;74855;51.206;17.408;2024-02-14T05:54:05;35.90;;;15.77;;
84495;SDS011;74855;51.206;17.408;2024-02-14T05:59:01;27.65;;;13.93;;
84495;SDS011;74855;51.206;17.408;2024-02-14T06:03:58;26.75;;;13.82;;
84495;SDS011;74855;51.206;17.408;2024-02-14T06:08:54;30.17;;;15.85;;
84495;SDS011;74855;51.206;17.408;2024-02-14T06:13:49;27.88;;;16.90;;
84495;SDS011;74855;51.206;17.408;2024-02-14T06:18:45;29.13;;;16.63;;
84495;SDS011;74855;51.206;17.408;2024-02-14T06:23:42;31.20;;;15.73;;
84495;SDS011;74855;51.206;17.408;2024-02-14T06:28:38;31.70;;;17.50;;
84495;SDS011;74855;51.206;17.408;2024-02-14T06:33:33;30.52;;;16.05;;
84495;SDS011;74855;51.206;17.408;2024-02-14T06:38:30;33.92;;;15.40;;
84495;SDS011;74855;51.206;17.408;2024-02-14T06:43:27;33.95;;;16.95;;
84495;SDS011;74855;51.206;17.408;2024-02-14T06:48:23;32.72;;;18.10;;
84495;SDS011;74855;51.206;17.408;2024-02-14T06:53:19;33.65;;;17.65;;
84495;SDS011;74855;51.206;17.408;2024-02-14T06:58:14;29.50;;;15.40;;
84495;SDS011;74855;51.206;17.408;2024-02-14T07:03:13;31.52;;;15.27;;
84495;SDS011;74855;51.206;17.408;2024-02-14T07:08:09;28.08;;;14.93;;
84495;SDS011;74855;51.206;17.408;2024-02-14T07:13:05;28.77;;;15.80;;
84495;SDS011;74855;51.206;17.408;2024-02-14T07:18:00;29.85;;;15.25;;
84495;SDS011;74855;51.206;17.408;2024-02-14T07:22:57;27.42;;;15.07;;
84495;SDS011;74855;51.206;17.408;2024-02-14T07:27:53;34.75;;;17.33;;
84495;SDS011;74855;51.206;17.408;2024-02-14T07:32:48;30.85;;;16.15;;
84495;SDS011;74855;51.206;17.408;2024-02-14T07:37:44;30.75;;;16.77;;
84495;SDS011;74855;51.206;17.408;2024-02-14T07:42:41;34.00;;;18.02;;
84495;SDS011;74855;51.206;17.408;2024-02-14T07:47:37;35.95;;;19.58;;
84495;SDS011;74855;51.206;17.408;2024-02-14T07:52:32;34.55;;;18.45;;
84495;SDS011;74855;51.206;17.408;2024-02-14T07:57:28;31.95;;;18.98;;
84495;SDS011;74855;51.206;17.408;2024-02-14T08:02:25;34.63;;;20.20;;
84495;SDS011;74855;51.206;17.408;2024-02-14T08:07:21;35.70;;;20.70;;
84495;SDS011;74855;51.206;17.408;2024-02-14T08:12:16;36.47;;;20.75;;
84495;SDS011;74855;51.206;17.408;2024-02-14T08:17:12;39.40;;;20.48;;
84495;SDS011;74855;51.206;17.408;2024-02-14T08:22:09;33.50;;;19.08;;
84495;SDS011;74855;51.206;17.408;2024-02-14T08:27:04;31.17;;;18.13;;
84495;SDS011;74855;51.206;17.408;2024-02-14T08:32:01;35.83;;;19.67;;
84495;SDS011;74855;51.206;17.408;2024-02-14T08:36:57;37.45;;;20.48;;
84495;SDS011;74855;51.206;17.408;2024-02-14T08:41:54;31.30;;;19.98;;
84495;SDS011;74855;51.206;17.408;2024-02-14T08:46:49;39.05;;;18.13;;
84495;SDS011;74855;51.206;17.408;2024-02-14T08:51:45;31.30;;;16.65;;
84495;SDS011;74855;51.206;17.408;2024-02-14T08:56:41;28.08;;;15.68;;
84495;SDS011;74855;51.206;17.408;2024-02-14T09:01:39;24.50;;;14.80;;
84495;SDS011;74855;51.206;17.408;2024-02-14T09:06:35;21.33;;;14.23;;
84495;SDS011;74855;51.206;17.408;2024-02-14T09:11:31;25.02;;;13.55;;
84495;SDS011;74855;51.206;17.408;2024-02-14T09:16:27;19.58;;;12.52;;
84495;SDS011;74855;51.206;17.408;2024-02-14T09:21:24;20.33;;;13.00;;
84495;SDS011;74855;51.206;17.408;2024-02-14T09:26:19;19.25;;;12.07;;
84495;SDS011;74855;51.206;17.408;2024-02-14T09:31:18;17.38;;;11.77;;
84495;SDS011;74855;51.206;17.408;2024-02-14T09:36:14;18.45;;;12.43;;
84495;SDS011;74855;51.206;17.408;2024-02-14T09:41:14;21.92;;;12.60;;
84495;SDS011;74855;51.206;17.408;2024-02-14T09:46:17;16.75;;;11.35;;
84495;SDS011;74855;51.206;17.408;2024-02-14T09:51:13;16.17;;;11.05;;
84495;SDS011;74855;51.206;17.408;2024-02-14T09:56:10;13.68;;;9.63;;
84495;SDS011;74855;51.206;17.408;2024-02-14T10:01:07;17.13;;;10.90;;
84495;SDS011;74855;51.206;17.408;2024-02-14T10:06:04;14.60;;;9.65;;
84495;SDS011;74855;51.206;17.408;2024-02-14T10:11:00;14.15;;;10.18;;
84495;SDS011;74855;51.206;17.408;2024-02-14T10:15:55;13.70;;;10.30;;
84495;SDS011;74855;51.206;17.408;2024-02-14T10:20:56;14.05;;;9.50;;
84495;SDS011;74855;51.206;17.408;2024-02-14T10:25:53;13.23;;;8.30;;
84495;SDS011;74855;51.206;17.408;2024-02-14T10:30:49;14.90;;;9.27;;
84495;SDS011;74855;51.206;17.408;2024-02-14T10:35:45;17.75;;;9.63;;
84495;SDS011;74855;51.206;17.408;2024-02-14T10:40:43;18.55;;;9.07;;
84495;SDS011;74855;51.206;17.408;2024-02-14T10:45:42;15.82;;;8.50;;
84495;SDS011;74855;51.206;17.408;2024-02-14T10:50:39;12.50;;;7.95;;
84495;SDS011;74855;51.206;17.408;2024-02-14T10:55:36;12.77;;;8.38;;
84495;SDS011;74855;51.206;17.408;2024-02-14T11:00:34;11.00;;;7.25;;
84495;SDS011;74855;51.206;17.408;2024-02-14T11:05:30;14.40;;;7.55;;
84495;SDS011;74855;51.206;17.408;2024-02-14T11:10:27;11.18;;;7.65;;
84495;SDS011;74855;51.206;17.408;2024-02-14T11:15:23;11.90;;;7.07;;
84495;SDS011;74855;51.206;17.408;2024-02-14T11:20:21;11.98;;;6.97;;
84495;SDS011;74855;51.206;17.408;2024-02-14T11:25:30;9.82;;;6.35;;
84495;SDS011;74855;51.206;17.408;2024-02-14T11:30:29;10.55;;;6.78;;
84495;SDS011;74855;51.206;17.408;2024-02-14T11:35:27;12.57;;;6.43;;
84495;SDS011;74855;51.206;17.408;2024-02-14T11:40:23;9.70;;;5.85;;
84495;SDS011;74855;51.206;17.408;2024-02-14T11:45:22;11.10;;;6.35;;
84495;SDS011;74855;51.206;17.408;2024-02-14T11:55:14;10.13;;;6.07;;
84495;SDS011;74855;51.206;17.408;2024-02-14T12:00:13;8.45;;;4.82;;
84495;SDS011;74855;51.206;17.408;2024-02-14T12:05:09;9.02;;;5.28;;
84495;SDS011;74855;51.206;17.408;2024-02-14T12:10:06;11.02;;;4.63;;
84495;SDS011;74855;51.206;17.408;2024-02-14T12:15:06;7.20;;;3.42;;
84495;SDS011;74855;51.206;17.408;2024-02-14T12:20:05;6.40;;;3.60;;
84495;SDS011;74855;51.206;17.408;2024-02-14T12:25:03;6.75;;;4.30;;
84495;SDS011;74855;51.206;17.408;2024-02-14T12:30:03;8.15;;;4.05;;
84495;SDS011;74855;51.206;17.408;2024-02-14T12:35:00;8.60;;;4.18;;
84495;SDS011;74855;51.206;17.408;2024-02-14T12:39:56;7.22;;;4.13;;
84495;SDS011;74855;51.206;17.408;2024-02-14T12:44:53;8.77;;;5.07;;
84495;SDS011;74855;51.206;17.408;2024-02-14T12:49:49;8.68;;;4.05;;
84495;SDS011;74855;51.206;17.408;2024-02-14T12:54:46;9.05;;;4.53;;
84495;SDS011;74855;51.206;17.408;2024-02-14T12:59:43;8.48;;;4.47;;
84495;SDS011;74855;51.206;17.408;2024-02-14T13:04:39;8.80;;;4.10;;
84495;SDS011;74855;51.206;17.408;2024-02-14T13:09:35;8.05;;;3.85;;
84495;SDS011;74855;51.206;17.408;2024-02-14T13:14:32;9.82;;;3.88;;
84495;SDS011;74855;51.206;17.408;2024-02-14T13:19:27;9.07;;;4.00;;
84495;SDS011;74855;51.206;17.408;2024-02-14T13:24:23;9.70;;;4.03;;
84495;SDS011;74855;51.206;17.408;2024-02-14T13:29:18;8.38;;;3.60;;
84495;SDS011;74855;51.206;17.408;2024-02-14T13:34:16;9.20;;;3.95;;
84495;SDS011;74855;51.206;17.408;2024-02-14T13:39:11;8.57;;;4.03;;
84495;SDS011;74855;51.206;17.408;2024-02-14T13:44:07;7.55;;;3.75;;
84495;SDS011;74855;51.206;17.408;2024-02-14T13:49:03;9.88;;;4.45;;
84495;SDS011;74855;51.206;17.408;2024-02-14T13:54:00;7.80;;;3.58;;
84495;SDS011;74855;51.206;17.408;2024-02-14T13:58:55;12.38;;;5.22;;
84495;SDS011;74855;51.206;17.408;2024-02-14T14:03:51;8.93;;;3.53;;
84495;SDS011;74855;51.206;17.408;2024-02-14T14:08:47;10.10;;;3.78;;
84495;SDS011;74855;51.206;17.408;2024-02-14T14:13:44;11.02;;;4.55;;
84495;SDS011;74855;51.206;17.408;2024-02-14T14:18:39;8.40;;;3.70;;
84495;SDS011;74855;51.206;17.408;2024-02-14T14:23:35;9.07;;;3.53;;
84495;SDS011;74855;51.206;17.408;2024-02-14T14:28:31;10.32;;;4.82;;
84495;SDS011;74855;51.206;17.408;2024-02-14T14:33:28;6.18;;;2.90;;
84495;SDS011;74855;51.206;17.408;2024-02-14T14:38:24;7.05;;;3.55;;
84495;SDS011;74855;51.206;17.408;2024-02-14T14:43:19;8.93;;;3.28;;
84495;SDS011;74855;51.206;17.408;2024-02-14T14:48:15;7.57;;;3.05;;
84495;SDS011;74855;51.206;17.408;2024-02-14T14:53:12;9.38;;;4.00;;
84495;SDS011;74855;51.206;17.408;2024-02-14T14:58:12;11.05;;;4.57;;
84495;SDS011;74855;51.206;17.408;2024-02-14T15:03:08;8.35;;;3.58;;
84495;SDS011;74855;51.206;17.408;2024-02-14T15:08:04;8.23;;;3.40;;
84495;SDS011;74855;51.206;17.408;2024-02-14T15:13:01;13.45;;;4.30;;
84495;SDS011;74855;51.206;17.408;2024-02-14T15:17:57;8.48;;;3.47;;
84495;SDS011;74855;51.206;17.408;2024-02-14T15:22:53;7.15;;;3.00;;
84495;SDS011;74855;51.206;17.408;2024-02-14T15:27:48;10.45;;;3.58;;
84495;SDS011;74855;51.206;17.408;2024-02-14T15:32:45;9.77;;;3.70;;
84495;SDS011;74855;51.206;17.408;2024-02-14T15:37:41;12.63;;;4.18;;
84495;SDS011;74855;51.206;17.408;2024-02-14T15:42:37;15.63;;;6.38;;
84495;SDS011;74855;51.206;17.408;2024-02-14T15:47:32;11.63;;;5.72;;
84495;SDS011;74855;51.206;17.408;2024-02-14T15:52:30;11.30;;;4.57;;
84495;SDS011;74855;51.206;17.408;2024-02-14T15:57:25;9.90;;;4.95;;
84495;SDS011;74855;51.206;17.408;2024-02-14T16:02:24;9.10;;;4.43;;
84495;SDS011;74855;51.206;17.408;2024-02-14T16:07:20;24.60;;;20.58;;
84495;SDS011;74855;51.206;17.408;2024-02-14T16:12:17;14.63;;;7.88;;
84495;SDS011;74855;51.206;17.408;2024-02-14T16:17:12;15.35;;;6.85;;
84495;SDS011;74855;51.206;17.408;2024-02-14T16:22:08;14.32;;;6.93;;
84495;SDS011;74855;51.206;17.408;2024-02-14T16:27:04;8.82;;;3.85;;
84495;SDS011;74855;51.206;17.408;2024-02-14T16:32:01;11.15;;;5.63;;
84495;SDS011;74855;51.206;17.408;2024-02-14T16:36:57;26.92;;;13.00;;
84495;SDS011;74855;51.206;17.408;2024-02-14T16:41:52;28.60;;;16.20;;
84495;SDS011;74855;51.206;17.408;2024-02-14T16:46:48;16.50;;;8.40;;
84495;SDS011;74855;51.206;17.408;2024-02-14T16:51:45;153.80;;;56.85;;
84495;SDS011;74855;51.206;17.408;2024-02-14T16:56:41;37.22;;;15.65;;
84495;SDS011;74855;51.206;17.408;2024-02-14T17:01:36;22.52;;;11.32;;
84495;SDS011;74855;51.206;17.408;2024-02-14T17:06:32;13.45;;;7.18;;
84495;SDS011;74855;51.206;17.408;2024-02-14T17:11:29;40.20;;;20.67;;
84495;SDS011;74855;51.206;17.408;2024-02-14T17:16:25;82.82;;;50.47;;
84495;SDS011;74855;51.206;17.408;2024-02-14T17:21:21;53.65;;;25.55;;
84495;SDS011;74855;51.206;17.408;2024-02-14T17:26:17;51.75;;;23.50;;
84495;SDS011;74855;51.206;17.408;2024-02-14T17:31:14;39.40;;;18.88;;
84495;SDS011;74855;51.206;17.408;2024-02-14T17:36:11;24.73;;;12.52;;
84495;SDS011;74855;51.206;17.408;2024-02-14T17:41:06;16.48;;;7.10;;
84495;SDS011;74855;51.206;17.408;2024-02-14T17:46:03;13.10;;;6.65;;
84495;SDS011;74855;51.206;17.408;2024-02-14T17:51:00;14.55;;;7.28;;
84495;SDS011;74855;51.206;17.408;2024-02-14T17:55:56;21.33;;;11.10;;
84495;SDS011;74855;51.206;17.408;2024-02-14T18:00:52;26.00;;;11.25;;
84495;SDS011;74855;51.206;17.408;2024-02-14T18:05:47;26.30;;;13.27;;
84495;SDS011;74855;51.206;17.408;2024-02-14T18:10:46;33.25;;;15.57;;
84495;SDS011;74855;51.206;17.408;2024-02-14T18:15:44;29.33;;;14.05;;
84495;SDS011;74855;51.206;17.408;2024-02-14T18:20:40;25.23;;;12.80;;
84495;SDS011;74855;51.206;17.408;2024-02-14T18:25:36;28.98;;;13.43;;
84495;SDS011;74855;51.206;17.408;2024-02-14T18:30:33;29.95;;;14.52;;
84495;SDS011;74855;51.206;17.408;2024-02-14T18:35:29;28.77;;;14.57;;
84495;SDS011;74855;51.206;17.408;2024-02-14T18:40:25;25.35;;;11.60;;
84495;SDS011;74855;51.206;17.408;2024-02-14T18:45:20;23.50;;;12.63;;
84495;SDS011;74855;51.206;17.408;2024-02-14T18:50:17;20.20;;;10.70;;
84495;SDS011;74855;51.206;17.408;2024-02-14T18:55:19;28.65;;;14.35;;
84495;SDS011;74855;51.206;17.408;2024-02-14T19:00:15;33.47;;;14.32;;
84495;SDS011;74855;51.206;17.408;2024-02-14T19:05:12;26.27;;;13.20;;
84495;SDS011;74855;51.206;17.408;2024-02-14T19:10:09;21.65;;;12.00;;
84495;SDS011;74855;51.206;17.408;2024-02-14T19:15:05;43.53;;;22.63;;
84495;SDS011;74855;51.206;17.408;2024-02-14T19:20:02;40.40;;;22.40;;
84495;SDS011;74855;51.206;17.408;2024-02-14T19:24:58;53.28;;;26.00;;
84495;SDS011;74855;51.206;17.408;2024-02-14T19:29:55;33.00;;;17.98;;
84495;SDS011;74855;51.206;17.408;2024-02-14T19:34:52;32.03;;;15.55;;
84495;SDS011;74855;51.206;17.408;2024-02-14T19:39:48;34.38;;;15.02;;
84495;SDS011;74855;51.206;17.408;2024-02-14T19:44:43;22.67;;;13.00;;
84495;SDS011;74855;51.206;17.408;2024-02-14T19:49:40;27.80;;;16.50;;
84495;SDS011;74855;51.206;17.408;2024-02-14T19:54:36;26.33;;;14.23;;
84495;SDS011;74855;51.206;17.408;2024-02-14T19:59:32;24.23;;;13.45;;
84495;SDS011;74855;51.206;17.408;2024-02-14T20:04:28;33.20;;;17.70;;
84495;SDS011;74855;51.206;17.408;2024-02-14T20:09:25;39.80;;;21.98;;
84495;SDS011;74855;51.206;17.408;2024-02-14T20:14:21;32.53;;;17.98;;
84495;SDS011;74855;51.206;17.408;2024-02-14T20:19:17;31.65;;;15.70;;
84495;SDS011;74855;51.206;17.408;2024-02-14T20:24:13;20.17;;;12.80;;
84495;SDS011;74855;51.206;17.408;2024-02-14T20:29:10;18.38;;;11.48;;
84495;SDS011;74855;51.206;17.408;2024-02-14T20:34:06;22.63;;;13.45;;
84495;SDS011;74855;51.206;17.408;2024-02-14T20:39:02;16.58;;;10.18;;
84495;SDS011;74855;51.206;17.408;2024-02-14T20:43:58;18.25;;;9.93;;
84495;SDS011;74855;51.206;17.408;2024-02-14T20:48:55;18.10;;;10.82;;
84495;SDS011;74855;51.206;17.408;2024-02-14T20:53:50;19.67;;;11.60;;
84495;SDS011;74855;51.206;17.408;2024-02-14T20:58:46;22.17;;;12.88;;
84495;SDS011;74855;51.206;17.408;2024-02-14T21:03:42;18.77;;;11.85;;
84495;SDS011;74855;51.206;17.408;2024-02-14T21:08:39;19.35;;;12.20;;
84495;SDS011;74855;51.206;17.408;2024-02-14T21:13:34;21.88;;;12.40;;
84495;SDS011;74855;51.206;17.408;2024-02-14T21:18:30;25.45;;;14.35;;
84495;SDS011;74855;51.206;17.408;2024-02-14T21:23:26;30.20;;;15.05;;
84495;SDS011;74855;51.206;17.408;2024-02-14T21:28:24;56.72;;;24.10;;
84495;SDS011;74855;51.206;17.408;2024-02-14T21:33:19;47.70;;;22.75;;
84495;SDS011;74855;51.206;17.408;2024-02-14T21:38:17;40.95;;;20.48;;
84495;SDS011;74855;51.206;17.408;2024-02-14T21:43:13;29.50;;;18.33;;
84495;SDS011;74855;51.206;17.408;2024-02-14T21:48:10;31.83;;;17.05;;
84495;SDS011;74855;51.206;17.408;2024-02-14T21:53:05;23.73;;;14.82;;
84495;SDS011;74855;51.206;17.408;2024-02-14T21:58:01;24.27;;;12.88;;
84495;SDS011;74855;51.206;17.408;2024-02-14T22:02:57;23.70;;;13.40;;
84495;SDS011;74855;51.206;17.408;2024-02-14T22:07:54;22.67;;;12.90;;
84495;SDS011;74855;51.206;17.408;2024-02-14T22:12:50;22.20;;;11.93;;
84495;SDS011;74855;51.206;17.408;2024-02-14T22:17:45;18.70;;;10.65;;
84495;SDS011;74855;51.206;17.408;2024-02-14T22:22:41;20.25;;;13.02;;
84495;SDS011;74855;51.206;17.408;2024-02-14T22:27:38;24.80;;;14.93;;
84495;SDS011;74855;51.206;17.408;2024-02-14T22:32:33;20.60;;;11.98;;
84495;SDS011;74855;51.206;17.408;2024-02-14T22:37:29;20.67;;;11.48;;
84495;SDS011;74855;51.206;17.408;2024-02-14T22:42:25;21.25;;;10.65;;
84495;SDS011;74855;51.206;17.408;2024-02-14T22:47:22;20.92;;;12.70;;
84495;SDS011;74855;51.206;17.408;2024-02-14T22:52:17;20.70;;;12.45;;
84495;SDS011;74855;51.206;17.408;2024-02-14T22:57:14;21.63;;;11.95;;
84495;SDS011;74855;51.206;17.408;2024-02-14T23:02:10;22.33;;;13.27;;
84495;SDS011;74855;51.206;17.408;2024-02-14T23:07:07;20.58;;;10.38;;
84495;SDS011;74855;51.206;17.408;2024-02-14T23:12:02;19.20;;;10.38;;
84495;SDS011;74855;51.206;17.408;2024-02-14T23:16:58;18.65;;;10.25;;
84495;SDS011;74855;51.206;17.408;2024-02-14T23:21:55;19.20;;;10.55;;
84495;SDS011;74855;51.206;17.408;2024-02-14T23:26:52;20.02;;;10.45;;
84495;SDS011;74855;51.206;17.408;2024-02-14T23:31:48;24.67;;;12.60;;
84495;SDS011;74855;51.206;17.408;2024-02-14T23:36:44;29.10;;;15.48;;
84495;SDS011;74855;51.206;17.408;2024-02-14T23:41:40;28.50;;;14.82;;
84495;SDS011;74855;51.206;17.408;2024-02-14T23:46:37;46.65;;;20.63;;
84495;SDS011;74855;51.206;17.408;2024-02-14T23:51:32;80.68;;;29.70;;
84495;SDS011;74855;51.206;17.408;2024-02-14T23:56:28;53.17;;;23.55;;
